createdAt,value
2018-10-11T00:00:08.426Z,1017.84
2018-10-11T00:01:08.402Z,1017.88
2018-10-11T00:02:08.375Z,1017.90
2018-10-11T00:03:08.351Z,1017.86
2018-10-11T00:04:08.326Z,1017.84
2018-10-11T00:05:08.300Z,1017.86
2018-10-11T00:06:08.275Z,1017.83
2018-10-11T00:07:08.250Z,1017.87
2018-10-11T00:08:08.223Z,1017.89
2018-10-11T00:09:08.202Z,1017.90
2018-10-11T00:10:08.172Z,1017.92
2018-10-11T00:11:08.147Z,1017.90
2018-10-11T00:12:08.123Z,1017.94
2018-10-11T00:13:08.098Z,1017.92
2018-10-11T00:14:08.072Z,1017.92
2018-10-11T00:15:08.048Z,1017.93
2018-10-11T00:16:08.022Z,1017.93
2018-10-11T00:17:07.999Z,1017.90
2018-10-11T00:18:07.971Z,1017.90
2018-10-11T00:19:07.947Z,1017.90
2018-10-11T00:20:07.927Z,1017.87
2018-10-11T00:21:07.900Z,1017.85
2018-10-11T00:22:07.872Z,1017.84
2018-10-11T00:23:07.846Z,1017.82
2018-10-11T00:24:07.822Z,1017.84
2018-10-11T00:25:07.799Z,1017.85
2018-10-11T00:26:07.771Z,1017.82
2018-10-11T00:27:07.745Z,1017.83
2018-10-11T00:28:07.719Z,1017.81
2018-10-11T00:29:07.694Z,1017.80
2018-10-11T00:30:07.667Z,1017.86
2018-10-11T00:31:07.648Z,1017.82
2018-10-11T00:32:07.618Z,1017.83
2018-10-11T00:33:07.592Z,1017.87
2018-10-11T00:34:07.567Z,1017.91
2018-10-11T00:35:07.542Z,1017.91
2018-10-11T00:36:07.515Z,1017.92
2018-10-11T00:37:07.492Z,1017.90
2018-10-11T00:38:07.468Z,1017.88
2018-10-11T00:39:07.441Z,1017.91
2018-10-11T00:40:07.416Z,1017.92
2018-10-11T00:41:07.389Z,1017.88
2018-10-11T00:42:07.364Z,1017.89
2018-10-11T00:43:07.340Z,1017.90
2018-10-11T00:44:07.315Z,1017.87
2018-10-11T00:45:07.288Z,1017.88
2018-10-11T00:46:07.264Z,1017.86
2018-10-11T00:47:07.242Z,1017.90
2018-10-11T00:48:07.213Z,1017.88
2018-10-11T00:49:07.187Z,1017.88
2018-10-11T00:50:07.162Z,1017.84
2018-10-11T00:51:07.136Z,1017.81
2018-10-11T00:52:07.111Z,1017.85
2018-10-11T00:53:07.107Z,1017.81
2018-10-11T00:54:07.060Z,1017.80
2018-10-11T00:55:07.037Z,1017.81
2018-10-11T00:56:07.010Z,1017.83
2018-10-11T00:57:06.985Z,1017.81
2018-10-11T00:58:06.958Z,1017.80
2018-10-11T00:59:06.933Z,1017.78
2018-10-11T01:00:06.908Z,1017.72
2018-10-11T01:01:06.882Z,1017.77
2018-10-11T01:02:06.857Z,1017.73
2018-10-11T01:03:06.831Z,1017.78
2018-10-11T01:04:06.806Z,1017.74
2018-10-11T01:05:06.781Z,1017.75
2018-10-11T01:06:06.755Z,1017.73
2018-10-11T01:07:06.728Z,1017.75
2018-10-11T01:08:06.703Z,1017.70
2018-10-11T01:09:06.715Z,1017.69
2018-10-11T01:10:06.665Z,1017.70
2018-10-11T01:11:06.627Z,1017.67
2018-10-11T01:12:06.601Z,1017.68
2018-10-11T01:13:06.576Z,1017.65
2018-10-11T01:14:06.550Z,1017.68
2018-10-11T01:15:06.523Z,1017.65
2018-10-11T01:16:06.499Z,1017.69
2018-10-11T01:17:06.482Z,1017.61
2018-10-11T01:18:06.445Z,1017.60
2018-10-11T01:19:06.422Z,1017.56
2018-10-11T01:20:06.396Z,1017.55
2018-10-11T01:21:06.374Z,1017.58
2018-10-11T01:22:06.344Z,1017.58
2018-10-11T01:23:06.319Z,1017.61
2018-10-11T01:24:06.294Z,1017.60
2018-10-11T01:25:06.268Z,1017.56
2018-10-11T01:26:06.241Z,1017.59
2018-10-11T01:27:06.216Z,1017.56
2018-10-11T01:28:06.190Z,1017.58
2018-10-11T01:29:06.164Z,1017.60
2018-10-11T01:30:06.185Z,1017.58
2018-10-11T01:31:06.114Z,1017.57
2018-10-11T01:32:06.091Z,1017.60
2018-10-11T01:33:06.061Z,1017.57
2018-10-11T01:34:06.033Z,1017.56
2018-10-11T01:35:06.011Z,1017.54
2018-10-11T01:36:05.982Z,1017.58
2018-10-11T01:37:05.957Z,1017.54
2018-10-11T01:38:05.934Z,1017.52
2018-10-11T01:39:05.905Z,1017.54
2018-10-11T01:40:05.881Z,1017.54
2018-10-11T01:41:05.853Z,1017.51
2018-10-11T01:42:05.831Z,1017.47
2018-10-11T01:43:05.802Z,1017.45
2018-10-11T01:44:05.776Z,1017.48
2018-10-11T01:45:05.754Z,1017.46
2018-10-11T01:46:05.723Z,1017.42
2018-10-11T01:47:05.698Z,1017.44
2018-10-11T01:48:05.673Z,1017.43
2018-10-11T01:49:05.645Z,1017.41
2018-10-11T01:50:05.619Z,1017.40
2018-10-11T01:51:05.594Z,1017.38
2018-10-11T01:52:05.569Z,1017.36
2018-10-11T01:53:05.543Z,1017.33
2018-10-11T01:54:05.516Z,1017.36
2018-10-11T01:55:05.490Z,1017.35
2018-10-11T01:56:05.465Z,1017.27
2018-10-11T01:57:05.441Z,1017.23
2018-10-11T01:58:05.410Z,1017.25
2018-10-11T01:59:05.385Z,1017.23
2018-10-11T02:00:05.360Z,1017.19
2018-10-11T02:01:05.334Z,1017.19
2018-10-11T02:02:05.307Z,1017.18
2018-10-11T02:03:05.281Z,1017.17
2018-10-11T02:04:05.256Z,1017.19
2018-10-11T02:05:05.233Z,1017.16
2018-10-11T02:06:05.203Z,1017.15
2018-10-11T02:07:05.179Z,1017.16
2018-10-11T02:08:05.151Z,1017.18
2018-10-11T02:09:05.126Z,1017.16
2018-10-11T02:10:05.100Z,1017.18
2018-10-11T02:11:05.072Z,1017.15
2018-10-11T02:12:05.054Z,1017.15
2018-10-11T02:13:05.022Z,1017.16
2018-10-11T02:14:04.997Z,1017.17
2018-10-11T02:15:04.969Z,1017.19
2018-10-11T02:16:04.942Z,1017.13
2018-10-11T02:17:04.918Z,1017.11
2018-10-11T02:18:04.890Z,1017.10
2018-10-11T02:19:04.866Z,1017.07
2018-10-11T02:20:04.838Z,1017.09
2018-10-11T02:21:04.813Z,1017.07
2018-10-11T02:22:04.786Z,1017.00
2018-10-11T02:23:04.761Z,1016.97
2018-10-11T02:24:04.734Z,1016.95
2018-10-11T02:25:04.708Z,1016.93
2018-10-11T02:26:04.684Z,1016.93
2018-10-11T02:27:04.657Z,1016.90
2018-10-11T02:28:04.630Z,1016.86
2018-10-11T02:29:04.607Z,1016.84
2018-10-11T02:30:04.580Z,1016.84
2018-10-11T02:31:04.556Z,1016.79
2018-10-11T02:32:04.619Z,1016.78
2018-10-11T02:33:04.501Z,1016.75
2018-10-11T02:34:04.476Z,1016.76
2018-10-11T02:35:04.448Z,1016.74
2018-10-11T02:36:04.426Z,1016.75
2018-10-11T02:37:04.398Z,1016.71
2018-10-11T02:38:04.370Z,1016.73
2018-10-11T02:39:04.345Z,1016.76
2018-10-11T02:40:04.319Z,1016.72
2018-10-11T02:41:04.293Z,1016.71
2018-10-11T02:42:04.266Z,1016.74
2018-10-11T02:43:04.239Z,1016.76
2018-10-11T02:44:04.218Z,1016.73
2018-10-11T02:45:04.188Z,1016.73
2018-10-11T02:46:04.164Z,1016.69
2018-10-11T02:47:04.137Z,1016.69
2018-10-11T02:48:04.109Z,1016.68
2018-10-11T02:49:04.085Z,1016.69
2018-10-11T02:50:04.057Z,1016.70
2018-10-11T02:51:04.033Z,1016.73
2018-10-11T02:52:04.004Z,1016.75
2018-10-11T02:53:03.978Z,1016.75
2018-10-11T02:54:03.956Z,1016.75
2018-10-11T02:55:03.926Z,1016.77
2018-10-11T02:56:03.898Z,1016.77
2018-10-11T02:57:03.875Z,1016.78
2018-10-11T02:58:03.845Z,1016.75
2018-10-11T02:59:03.819Z,1016.73
2018-10-11T03:00:03.795Z,1016.74
2018-10-11T03:01:03.767Z,1016.75
2018-10-11T03:02:03.741Z,1016.73
2018-10-11T03:03:03.719Z,1016.75
2018-10-11T03:04:03.689Z,1016.73
2018-10-11T03:05:03.661Z,1016.75
2018-10-11T03:06:03.636Z,1016.76
2018-10-11T03:07:03.610Z,1016.74
2018-10-11T03:08:03.584Z,1016.72
2018-10-11T03:09:03.557Z,1016.73
2018-10-11T03:10:03.530Z,1016.75
2018-10-11T03:11:03.506Z,1016.73
2018-10-11T03:12:03.477Z,1016.76
2018-10-11T03:13:03.451Z,1016.73
2018-10-11T03:14:03.425Z,1016.69
2018-10-11T03:15:03.399Z,1016.68
2018-10-11T03:16:03.372Z,1016.62
2018-10-11T03:17:03.347Z,1016.58
2018-10-11T03:18:03.318Z,1016.54
2018-10-11T03:19:03.293Z,1016.53
2018-10-11T03:20:03.266Z,1016.53
2018-10-11T03:21:03.240Z,1016.51
2018-10-11T03:22:03.212Z,1016.51
2018-10-11T03:23:03.187Z,1016.58
2018-10-11T03:24:03.160Z,1016.59
2018-10-11T03:25:03.135Z,1016.60
2018-10-11T03:26:03.107Z,1016.60
2018-10-11T03:27:03.082Z,1016.60
2018-10-11T03:28:03.054Z,1016.58
2018-10-11T03:29:03.028Z,1016.59
2018-10-11T03:30:03.002Z,1016.55
2018-10-11T03:31:02.975Z,1016.55
2018-10-11T03:32:02.948Z,1016.54
2018-10-11T03:33:02.921Z,1016.53
2018-10-11T03:34:02.898Z,1016.51
2018-10-11T03:35:02.869Z,1016.47
2018-10-11T03:36:02.841Z,1016.46
2018-10-11T03:37:02.816Z,1016.46
2018-10-11T03:38:02.788Z,1016.43
2018-10-11T03:39:02.766Z,1016.40
2018-10-11T03:40:02.736Z,1016.37
2018-10-11T03:41:02.708Z,1016.41
2018-10-11T03:42:02.682Z,1016.38
2018-10-11T03:43:02.656Z,1016.37
2018-10-11T03:44:02.629Z,1016.33
2018-10-11T03:45:02.606Z,1016.37
2018-10-11T03:46:02.575Z,1016.33
2018-10-11T03:47:02.550Z,1016.35
2018-10-11T03:48:02.523Z,1016.33
2018-10-11T03:49:02.497Z,1016.33
2018-10-11T03:50:02.468Z,1016.37
2018-10-11T03:51:02.444Z,1016.39
2018-10-11T03:52:02.417Z,1016.44
2018-10-11T03:53:02.390Z,1016.43
2018-10-11T03:54:02.365Z,1016.47
2018-10-11T03:55:02.337Z,1016.45
2018-10-11T03:56:02.309Z,1016.50
2018-10-11T03:57:02.280Z,1016.51
2018-10-11T03:58:02.257Z,1016.49
2018-10-11T03:59:02.233Z,1016.54
2018-10-11T04:00:02.201Z,1016.51
2018-10-11T04:01:02.175Z,1016.53
2018-10-11T04:02:02.147Z,1016.55
2018-10-11T04:03:02.120Z,1016.50
2018-10-11T04:04:02.097Z,1016.47
2018-10-11T04:05:02.068Z,1016.48
2018-10-11T04:06:02.040Z,1016.42
2018-10-11T04:07:02.013Z,1016.41
2018-10-11T04:08:01.987Z,1016.41
2018-10-11T04:09:01.960Z,1016.38
2018-10-11T04:10:01.934Z,1016.36
2018-10-11T04:11:01.905Z,1016.40
2018-10-11T04:12:01.882Z,1016.41
2018-10-11T04:13:01.861Z,1016.40
2018-10-11T04:14:01.826Z,1016.41
2018-10-11T04:15:01.797Z,1016.38
2018-10-11T04:16:01.775Z,1016.49
2018-10-11T04:17:01.744Z,1016.49
2018-10-11T04:18:01.717Z,1016.53
2018-10-11T04:19:01.689Z,1016.50
2018-10-11T04:20:01.663Z,1016.56
2018-10-11T04:21:01.635Z,1016.53
2018-10-11T04:22:01.607Z,1016.48
2018-10-11T04:23:01.581Z,1016.46
2018-10-11T04:24:01.563Z,1016.49
2018-10-11T04:25:03.937Z,1016.45
2018-10-11T04:26:01.500Z,1016.44
2018-10-11T04:27:01.473Z,1016.44
2018-10-11T04:28:01.445Z,1016.38
2018-10-11T04:29:01.419Z,1016.39
2018-10-11T04:30:01.426Z,1016.38
2018-10-11T04:31:01.367Z,1016.41
2018-10-11T04:32:01.337Z,1016.38
2018-10-11T04:33:01.313Z,1016.36
2018-10-11T04:34:01.281Z,1016.37
2018-10-11T04:35:01.253Z,1016.32
2018-10-11T04:36:01.267Z,1016.34
2018-10-11T04:37:01.200Z,1016.30
2018-10-11T04:38:01.171Z,1016.25
2018-10-11T04:39:01.145Z,1016.22
2018-10-11T04:40:01.117Z,1016.21
2018-10-11T04:41:01.091Z,1016.22
2018-10-11T04:42:01.061Z,1016.23
2018-10-11T04:43:01.171Z,1016.20
2018-10-11T04:44:01.008Z,1016.20
2018-10-11T04:45:00.981Z,1016.18
2018-10-11T04:46:00.952Z,1016.20
2018-10-11T04:47:00.926Z,1016.17
2018-10-11T04:48:00.898Z,1016.20
2018-10-11T04:49:00.872Z,1016.24
2018-10-11T04:50:00.842Z,1016.26
2018-10-11T04:51:00.816Z,1016.29
2018-10-11T04:52:00.789Z,1016.28
2018-10-11T04:53:00.762Z,1016.28
2018-10-11T04:54:00.737Z,1016.28
2018-10-11T04:55:00.705Z,1016.30
2018-10-11T04:56:00.679Z,1016.31
2018-10-11T04:57:00.651Z,1016.33
2018-10-11T04:58:00.622Z,1016.35
2018-10-11T04:59:00.595Z,1016.34
2018-10-11T05:00:00.572Z,1016.34
2018-10-11T05:01:00.541Z,1016.34
2018-10-11T05:02:00.512Z,1016.34
2018-10-11T05:03:00.485Z,1016.34
2018-10-11T05:04:00.460Z,1016.29
2018-10-11T05:05:00.429Z,1016.29
2018-10-11T05:06:00.402Z,1016.26
2018-10-11T05:07:00.375Z,1016.21
2018-10-11T05:08:00.346Z,1016.20
2018-10-11T05:09:00.320Z,1016.23
2018-10-11T05:10:00.291Z,1016.24
2018-10-11T05:11:00.261Z,1016.25
2018-10-11T05:12:00.237Z,1016.23
2018-10-11T05:13:00.208Z,1016.21
2018-10-11T05:14:00.180Z,1016.22
2018-10-11T05:15:00.152Z,1016.20
2018-10-11T05:16:00.124Z,1016.15
2018-10-11T05:17:00.098Z,1016.12
2018-10-11T05:18:00.070Z,1016.15
2018-10-11T05:19:00.043Z,1016.18
2018-10-11T05:20:00.015Z,1016.17
2018-10-11T05:20:59.986Z,1016.18
2018-10-11T05:21:59.957Z,1016.16
2018-10-11T05:22:59.931Z,1016.20
2018-10-11T05:23:59.902Z,1016.20
2018-10-11T05:24:59.875Z,1016.21
2018-10-11T05:25:59.891Z,1016.23
2018-10-11T05:26:59.820Z,1016.19
2018-10-11T05:27:59.791Z,1016.14
2018-10-11T05:28:59.763Z,1016.15
2018-10-11T05:29:59.737Z,1016.15
2018-10-11T05:30:59.709Z,1016.15
2018-10-11T05:31:59.680Z,1016.15
2018-10-11T05:32:59.653Z,1016.11
2018-10-11T05:33:59.624Z,1016.11
2018-10-11T05:34:59.596Z,1016.09
2018-10-11T05:35:59.567Z,1016.09
2018-10-11T05:36:59.541Z,1016.08
2018-10-11T05:37:59.524Z,1016.07
2018-10-11T05:38:59.484Z,1016.07
2018-10-11T05:39:59.456Z,1016.13
2018-10-11T05:40:59.429Z,1016.13
2018-10-11T05:41:59.402Z,1016.11
2018-10-11T05:42:59.373Z,1016.16
2018-10-11T05:43:59.343Z,1016.19
2018-10-11T05:44:59.322Z,1016.17
2018-10-11T05:45:59.288Z,1016.18
2018-10-11T05:46:59.262Z,1016.16
2018-10-11T05:47:59.234Z,1016.14
2018-10-11T05:48:59.205Z,1016.12
2018-10-11T05:49:59.177Z,1016.13
2018-10-11T05:50:59.151Z,1016.15
2018-10-11T05:51:59.123Z,1016.13
2018-10-11T05:52:59.094Z,1016.07
2018-10-11T05:53:59.067Z,1016.08
2018-10-11T05:54:59.038Z,1016.12
2018-10-11T05:55:59.013Z,1016.10
2018-10-11T05:56:58.982Z,1016.12
2018-10-11T05:57:58.955Z,1016.07
2018-10-11T05:58:58.927Z,1016.06
2018-10-11T05:59:58.900Z,1016.06
2018-10-11T06:00:58.874Z,1016.05
2018-10-11T06:01:58.845Z,1016.06
2018-10-11T06:02:58.818Z,1016.05
2018-10-11T06:03:58.795Z,1016.08
2018-10-11T06:04:58.763Z,1016.14
2018-10-11T06:05:58.735Z,1016.14
2018-10-11T06:06:58.709Z,1016.22
2018-10-11T06:07:58.681Z,1016.23
2018-10-11T06:08:58.653Z,1016.22
2018-10-11T06:09:58.627Z,1016.23
2018-10-11T06:10:58.599Z,1016.25
2018-10-11T06:11:58.612Z,1016.24
2018-10-11T06:12:58.544Z,1016.28
2018-10-11T06:13:58.518Z,1016.27
2018-10-11T06:14:58.490Z,1016.28
2018-10-11T06:15:58.466Z,1016.30
2018-10-11T06:16:58.438Z,1016.30
2018-10-11T06:17:58.415Z,1016.33
2018-10-11T06:18:58.381Z,1016.38
2018-10-11T06:19:58.357Z,1016.37
2018-10-11T06:20:58.332Z,1016.42
2018-10-11T06:21:58.302Z,1016.40
2018-10-11T06:22:58.276Z,1016.38
2018-10-11T06:23:58.255Z,1016.41
2018-10-11T06:24:58.327Z,1016.43
2018-10-11T06:25:58.195Z,1016.44
2018-10-11T06:26:58.168Z,1016.42
2018-10-11T06:27:58.142Z,1016.43
2018-10-11T06:28:58.118Z,1016.41
2018-10-11T06:29:58.089Z,1016.36
2018-10-11T06:30:58.069Z,1016.37
2018-10-11T06:31:58.039Z,1016.36
2018-10-11T06:32:58.014Z,1016.36
2018-10-11T06:33:57.987Z,1016.35
2018-10-11T06:34:57.961Z,1016.39
2018-10-11T06:35:57.998Z,1016.36
2018-10-11T06:36:57.909Z,1016.42
2018-10-11T06:37:57.884Z,1016.40
2018-10-11T06:38:57.860Z,1016.39
2018-10-11T06:39:57.835Z,1016.40
2018-10-11T06:40:57.811Z,1016.36
2018-10-11T06:41:57.907Z,1016.40
2018-10-11T06:42:57.759Z,1016.41
2018-10-11T06:43:57.734Z,1016.42
2018-10-11T06:44:57.709Z,1016.43
2018-10-11T06:45:57.683Z,1016.43
2018-10-11T06:46:57.659Z,1016.44
2018-10-11T06:47:57.634Z,1016.47
2018-10-11T06:48:57.609Z,1016.47
2018-10-11T06:49:57.723Z,1016.49
2018-10-11T06:50:57.558Z,1016.52
2018-10-11T06:51:57.534Z,1016.49
2018-10-11T06:52:57.513Z,1016.52
2018-10-11T06:53:57.482Z,1016.54
2018-10-11T06:54:57.458Z,1016.50
2018-10-11T06:55:57.498Z,1016.45
2018-10-11T06:56:57.409Z,1016.44
2018-10-11T06:57:57.385Z,1016.42
2018-10-11T06:58:57.362Z,1016.42
2018-10-11T06:59:57.335Z,1016.40
2018-10-11T07:00:57.312Z,1016.38
2018-10-11T07:01:57.376Z,1016.43
2018-10-11T07:02:57.259Z,1016.48
2018-10-11T07:03:57.235Z,1016.43
2018-10-11T07:04:57.210Z,1016.46
2018-10-11T07:05:57.185Z,1016.50
2018-10-11T07:06:57.162Z,1016.51
2018-10-11T07:07:57.136Z,1016.50
2018-10-11T07:08:57.115Z,1016.46
2018-10-11T07:09:57.085Z,1016.47
2018-10-11T07:10:57.061Z,1016.40
2018-10-11T07:11:57.036Z,1016.40
2018-10-11T07:12:57.011Z,1016.41
2018-10-11T07:13:57.006Z,1016.32
2018-10-11T07:14:57.006Z,1016.34
2018-10-11T07:15:56.937Z,1016.36
2018-10-11T07:16:56.915Z,1016.40
2018-10-11T07:17:56.885Z,1016.37
2018-10-11T07:18:56.862Z,1016.39
2018-10-11T07:19:56.837Z,1016.37
2018-10-11T07:20:56.813Z,1016.35
2018-10-11T07:21:56.793Z,1016.34
2018-10-11T07:22:56.763Z,1016.35
2018-10-11T07:23:56.740Z,1016.35
2018-10-11T07:24:56.717Z,1016.36
2018-10-11T07:25:56.767Z,1016.34
2018-10-11T07:26:56.667Z,1016.32
2018-10-11T07:27:56.645Z,1016.33
2018-10-11T07:28:56.619Z,1016.29
2018-10-11T07:29:56.594Z,1016.32
2018-10-11T07:30:56.572Z,1016.32
2018-10-11T07:31:56.545Z,1016.34
2018-10-11T07:32:56.522Z,1016.37
2018-10-11T07:33:56.498Z,1016.40
2018-10-11T07:34:56.495Z,1016.41
2018-10-11T07:35:56.451Z,1016.40
2018-10-11T07:36:56.426Z,1016.39
2018-10-11T07:37:56.403Z,1016.40
2018-10-11T07:38:56.388Z,1016.41
2018-10-11T07:39:56.357Z,1016.42
2018-10-11T07:40:56.372Z,1016.46
2018-10-11T07:41:56.313Z,1016.48
2018-10-11T07:42:56.288Z,1016.45
2018-10-11T07:43:56.264Z,1016.43
2018-10-11T07:44:56.241Z,1016.44
2018-10-11T07:45:56.218Z,1016.48
2018-10-11T07:46:56.217Z,1016.50
2018-10-11T07:47:56.176Z,1016.50
2018-10-11T07:48:56.152Z,1016.49
2018-10-11T07:49:56.129Z,1016.47
2018-10-11T07:50:56.108Z,1016.48
2018-10-11T07:51:56.087Z,1016.50
2018-10-11T07:52:56.147Z,1016.52
2018-10-11T07:53:56.044Z,1016.55
2018-10-11T07:54:56.022Z,1016.54
2018-10-11T07:55:56.001Z,1016.56
2018-10-11T07:56:55.979Z,1016.60
2018-10-11T07:57:55.957Z,1016.66
2018-10-11T07:58:55.936Z,1016.66
2018-10-11T07:59:55.916Z,1016.69
2018-10-11T08:00:55.896Z,1016.70
2018-10-11T08:01:55.876Z,1016.69
2018-10-11T08:02:55.856Z,1016.69
2018-10-11T08:03:55.832Z,1016.66
2018-10-11T08:04:55.811Z,1016.68
2018-10-11T08:05:55.818Z,1016.68
2018-10-11T08:06:55.769Z,1016.70
2018-10-11T08:07:55.755Z,1016.73
2018-10-11T08:08:55.795Z,1016.73
2018-10-11T08:09:55.708Z,1016.68
2018-10-11T08:10:55.873Z,1016.74
2018-10-11T08:11:55.941Z,1016.72
2018-10-11T08:12:55.648Z,1016.67
2018-10-11T08:13:55.631Z,1016.66
2018-10-11T08:14:55.608Z,1016.60
2018-10-11T08:15:55.630Z,1016.54
2018-10-11T08:16:55.695Z,1016.50
2018-10-11T08:17:55.917Z,1016.50
2018-10-11T08:18:55.690Z,1016.50
2018-10-11T08:19:55.579Z,1016.48
2018-10-11T08:20:55.494Z,1016.50
2018-10-11T08:21:55.469Z,1016.50
2018-10-11T08:22:55.448Z,1016.49
2018-10-11T08:23:55.428Z,1016.49
2018-10-11T08:24:55.471Z,1016.46
2018-10-11T08:25:55.837Z,1016.51
2018-10-11T08:26:55.431Z,1016.48
2018-10-11T08:27:55.350Z,1016.55
2018-10-11T08:28:55.329Z,1016.53
2018-10-11T08:29:55.310Z,1016.50
2018-10-11T08:30:55.292Z,1016.51
2018-10-11T08:31:55.271Z,1016.44
2018-10-11T08:32:55.299Z,1016.48
2018-10-11T08:33:55.232Z,1016.50
2018-10-11T08:34:55.214Z,1016.50
2018-10-11T08:35:55.195Z,1016.52
2018-10-11T08:36:55.177Z,1016.54
2018-10-11T08:37:55.348Z,1016.45
2018-10-11T08:38:55.138Z,1016.44
2018-10-11T08:39:55.119Z,1016.46
2018-10-11T08:40:55.099Z,1016.45
2018-10-11T08:41:55.078Z,1016.48
2018-10-11T08:42:55.061Z,1016.50
2018-10-11T08:43:55.103Z,1016.52
2018-10-11T08:44:55.023Z,1016.55
2018-10-11T08:45:55.007Z,1016.50
2018-10-11T08:46:54.985Z,1016.51
2018-10-11T08:47:54.966Z,1016.54
2018-10-11T08:48:54.961Z,1016.58
2018-10-11T08:49:54.928Z,1016.58
2018-10-11T08:50:54.958Z,1016.59
2018-10-11T08:51:54.891Z,1016.59
2018-10-11T08:52:54.871Z,1016.56
2018-10-11T08:53:54.853Z,1016.58
2018-10-11T08:54:54.836Z,1016.53
2018-10-11T08:55:54.889Z,1016.55
2018-10-11T08:56:54.797Z,1016.49
2018-10-11T08:57:54.777Z,1016.53
2018-10-11T08:58:54.759Z,1016.48
2018-10-11T08:59:54.742Z,1016.44
2018-10-11T09:00:54.723Z,1016.44
2018-10-11T09:01:54.704Z,1016.43
2018-10-11T09:02:54.689Z,1016.48
2018-10-11T09:03:54.813Z,1016.49
2018-10-11T09:04:54.650Z,1016.43
2018-10-11T09:05:54.631Z,1016.44
2018-10-11T09:06:54.611Z,1016.44
2018-10-11T09:07:54.593Z,1016.39
2018-10-11T09:08:54.576Z,1016.42
2018-10-11T09:09:54.558Z,1016.33
2018-10-11T09:10:54.617Z,1016.32
2018-10-11T09:11:54.534Z,1016.38
2018-10-11T09:12:54.502Z,1016.38
2018-10-11T09:13:54.484Z,1016.44
2018-10-11T09:14:54.464Z,1016.47
2018-10-11T09:15:54.447Z,1016.44
2018-10-11T09:16:54.426Z,1016.44
2018-10-11T09:17:54.408Z,1016.46
2018-10-11T09:18:54.390Z,1016.45
2018-10-11T09:19:54.373Z,1016.40
2018-10-11T09:20:54.355Z,1016.43
2018-10-11T09:21:54.336Z,1016.44
2018-10-11T09:22:54.318Z,1016.36
2018-10-11T09:23:54.301Z,1016.32
2018-10-11T09:24:54.282Z,1016.29
2018-10-11T09:25:54.262Z,1016.27
2018-10-11T09:26:54.245Z,1016.25
2018-10-11T09:27:54.226Z,1016.20
2018-10-11T09:28:54.209Z,1016.20
2018-10-11T09:29:54.189Z,1016.23
2018-10-11T09:30:54.173Z,1016.22
2018-10-11T09:31:54.155Z,1016.13
2018-10-11T09:32:54.136Z,1016.10
2018-10-11T09:33:54.118Z,1016.13
2018-10-11T09:34:54.100Z,1016.09
2018-10-11T09:35:54.082Z,1016.08
2018-10-11T09:36:54.063Z,1016.05
2018-10-11T09:37:54.045Z,1016.01
2018-10-11T09:38:54.027Z,1016.04
2018-10-11T09:39:54.013Z,1016.00
2018-10-11T09:40:53.991Z,1016.00
2018-10-11T09:41:53.973Z,1016.00
2018-10-11T09:42:53.983Z,1015.95
2018-10-11T09:43:53.936Z,1015.96
2018-10-11T09:44:53.919Z,1015.95
2018-10-11T09:45:53.903Z,1015.93
2018-10-11T09:46:53.883Z,1015.91
2018-10-11T09:47:53.865Z,1015.91
2018-10-11T09:48:53.934Z,1015.89
2018-10-11T09:49:53.829Z,1015.85
2018-10-11T09:50:53.811Z,1015.84
2018-10-11T09:51:53.797Z,1015.88
2018-10-11T09:52:53.775Z,1015.82
2018-10-11T09:53:53.756Z,1015.83
2018-10-11T09:54:53.763Z,1015.85
2018-10-11T09:55:53.721Z,1015.83
2018-10-11T09:56:53.703Z,1015.82
2018-10-11T09:57:53.683Z,1015.80
2018-10-11T09:58:53.667Z,1015.79
2018-10-11T09:59:53.649Z,1015.86
2018-10-11T10:00:53.631Z,1015.77
2018-10-11T10:01:53.623Z,1015.77
2018-10-11T10:02:53.595Z,1015.79
2018-10-11T10:03:53.577Z,1015.79
2018-10-11T10:04:53.558Z,1015.80
2018-10-11T10:05:53.541Z,1015.85
2018-10-11T10:06:53.522Z,1015.82
2018-10-11T10:07:53.504Z,1015.79
2018-10-11T10:08:53.487Z,1015.81
2018-10-11T10:09:53.510Z,1015.87
2018-10-11T10:10:53.452Z,1015.83
2018-10-11T10:11:53.436Z,1015.83
2018-10-11T10:12:53.416Z,1015.88
2018-10-11T10:13:53.396Z,1015.89
2018-10-11T10:14:53.380Z,1015.97
2018-10-11T10:15:53.362Z,1015.88
2018-10-11T10:16:53.344Z,1015.97
2018-10-11T10:17:53.324Z,1016.02
2018-10-11T10:18:53.308Z,1015.98
2018-10-11T10:19:53.293Z,1016.01
2018-10-11T10:20:53.272Z,1015.97
2018-10-11T10:21:53.255Z,1015.94
2018-10-11T10:22:53.239Z,1015.89
2018-10-11T10:23:53.220Z,1015.91
2018-10-11T10:24:53.209Z,1015.89
2018-10-11T10:25:53.183Z,1015.85
2018-10-11T10:26:53.175Z,1015.88
2018-10-11T10:27:53.146Z,1015.87
2018-10-11T10:28:53.130Z,1015.85
2018-10-11T10:29:53.111Z,1015.87
2018-10-11T10:30:53.094Z,1015.90
2018-10-11T10:31:53.076Z,1015.95
2018-10-11T10:32:53.057Z,1015.94
2018-10-11T10:33:53.049Z,1015.96
2018-10-11T10:34:53.024Z,1015.96
2018-10-11T10:35:53.004Z,1016.03
2018-10-11T10:36:52.986Z,1016.00
2018-10-11T10:37:52.967Z,1015.94
2018-10-11T10:38:52.951Z,1015.90
2018-10-11T10:39:53.004Z,1015.93
2018-10-11T10:40:52.919Z,1015.87
2018-10-11T10:41:52.901Z,1015.88
2018-10-11T10:42:52.880Z,1015.93
2018-10-11T10:43:52.868Z,1015.85
2018-10-11T10:44:52.849Z,1015.90
2018-10-11T10:45:52.830Z,1015.87
2018-10-11T10:46:52.813Z,1015.88
2018-10-11T10:47:52.796Z,1015.92
2018-10-11T10:48:52.844Z,1015.90
2018-10-11T10:49:52.761Z,1015.86
2018-10-11T10:50:52.743Z,1015.87
2018-10-11T10:51:52.726Z,1015.80
2018-10-11T10:52:52.711Z,1015.79
2018-10-11T10:53:52.692Z,1015.77
2018-10-11T10:54:52.674Z,1015.71
2018-10-11T10:55:52.657Z,1015.69
2018-10-11T10:56:52.639Z,1015.69
2018-10-11T10:57:52.622Z,1015.61
2018-10-11T10:58:52.610Z,1015.61
2018-10-11T10:59:52.593Z,1015.60
2018-10-11T11:00:52.572Z,1015.57
2018-10-11T11:01:52.557Z,1015.54
2018-10-11T11:02:52.535Z,1015.58
2018-10-11T11:03:52.517Z,1015.50
2018-10-11T11:04:52.501Z,1015.50
2018-10-11T11:05:52.483Z,1015.49
2018-10-11T11:06:52.466Z,1015.44
2018-10-11T11:07:52.447Z,1015.47
2018-10-11T11:08:52.431Z,1015.48
2018-10-11T11:09:52.413Z,1015.44
2018-10-11T11:10:52.393Z,1015.47
2018-10-11T11:11:52.381Z,1015.44
2018-10-11T11:12:52.358Z,1015.43
2018-10-11T11:13:52.341Z,1015.48
2018-10-11T11:14:52.324Z,1015.45
2018-10-11T11:15:52.306Z,1015.43
2018-10-11T11:16:52.287Z,1015.43
2018-10-11T11:17:52.268Z,1015.41
2018-10-11T11:18:52.275Z,1015.39
2018-10-11T11:19:52.233Z,1015.37
2018-10-11T11:20:52.217Z,1015.38
2018-10-11T11:21:52.199Z,1015.35
2018-10-11T11:22:52.180Z,1015.33
2018-10-11T11:23:52.163Z,1015.33
2018-10-11T11:24:52.150Z,1015.26
2018-10-11T11:25:52.127Z,1015.26
2018-10-11T11:26:52.109Z,1015.24
2018-10-11T11:27:52.093Z,1015.27
2018-10-11T11:28:52.075Z,1015.22
2018-10-11T11:29:52.056Z,1015.20
2018-10-11T11:30:52.041Z,1015.17
2018-10-11T11:31:52.022Z,1015.21
2018-10-11T11:32:52.054Z,1015.20
2018-10-11T11:33:51.987Z,1015.24
2018-10-11T11:34:51.968Z,1015.23
2018-10-11T11:35:51.950Z,1015.25
2018-10-11T11:36:51.933Z,1015.30
2018-10-11T11:37:51.914Z,1015.26
2018-10-11T11:38:51.898Z,1015.23
2018-10-11T11:39:51.932Z,1015.25
2018-10-11T11:40:51.862Z,1015.26
2018-10-11T11:41:51.845Z,1015.23
2018-10-11T11:42:51.828Z,1015.17
2018-10-11T11:43:51.809Z,1015.21
2018-10-11T11:44:51.792Z,1015.19
2018-10-11T11:45:51.787Z,1015.24
2018-10-11T11:46:51.756Z,1015.24
2018-10-11T11:47:51.738Z,1015.24
2018-10-11T11:48:51.720Z,1015.24
2018-10-11T11:49:51.703Z,1015.19
2018-10-11T11:50:51.684Z,1015.22
2018-10-11T11:51:51.666Z,1015.24
2018-10-11T11:52:51.652Z,1015.26
2018-10-11T11:53:51.633Z,1015.26
2018-10-11T11:54:51.616Z,1015.26
2018-10-11T11:55:51.598Z,1015.22
2018-10-11T11:56:51.580Z,1015.19
2018-10-11T11:57:51.596Z,1015.21
2018-10-11T11:58:51.545Z,1015.23
2018-10-11T11:59:51.528Z,1015.26
2018-10-11T12:00:51.515Z,1015.24
2018-10-11T12:01:51.494Z,1015.25
2018-10-11T12:02:51.560Z,1015.24
2018-10-11T12:03:51.462Z,1015.27
2018-10-11T12:04:51.442Z,1015.28